createdAt,value
2022-09-14T00:01:37.168Z,96646.56
2022-09-14T00:04:24.388Z,96645.94
2022-09-14T00:06:51.932Z,96638.88
2022-09-14T00:09:24.598Z,96637.78
2022-09-14T00:11:52.546Z,96635.91
2022-09-14T00:14:20.430Z,96644.81
2022-09-14T00:16:48.540Z,96640.31
2022-09-14T00:19:27.749Z,96636.53
2022-09-14T00:21:57.886Z,96639.34
2022-09-14T00:24:28.120Z,96639.03
2022-09-14T00:26:55.755Z,96630.41
2022-09-14T00:29:24.188Z,96632.63
2022-09-14T00:31:52.219Z,96634.66
2022-09-14T00:34:19.839Z,96627.13
2022-09-14T00:36:50.582Z,96624.59
2022-09-14T00:39:21.543Z,96632.69
2022-09-14T00:41:51.227Z,96632.81
2022-09-14T00:44:18.404Z,96630.75
2022-09-14T00:46:49.757Z,96629.66
2022-09-14T00:49:38.349Z,96627.34
2022-09-14T00:52:21.929Z,96626.13
2022-09-14T00:55:00.419Z,96630.06
2022-09-14T00:57:35.192Z,96625.19
2022-09-14T01:00:05.223Z,96623.19
2022-09-14T01:02:34.537Z,96619.72
2022-09-14T01:05:02.405Z,96617.69
2022-09-14T01:08:19.550Z,96614.53
2022-09-14T01:11:30.171Z,96610.78
2022-09-14T01:14:12.063Z,96619.56
2022-09-14T01:17:32.145Z,96607.31
2022-09-14T01:20:42.551Z,96608.72
2022-09-14T01:23:21.228Z,96608.59
2022-09-14T01:25:57.381Z,96608.59
2022-09-14T01:28:41.200Z,96606.72
2022-09-14T01:31:50.178Z,96602.28
2022-09-14T01:34:26.622Z,96604.00
2022-09-14T01:37:13.095Z,96599.47
2022-09-14T01:39:52.115Z,96598.88
2022-09-14T01:42:24.067Z,96602.63
2022-09-14T01:44:58.128Z,96592.25
2022-09-14T01:47:41.651Z,96601.66
2022-09-14T01:50:16.180Z,96595.22
2022-09-14T01:52:59.655Z,96594.91
2022-09-14T01:55:55.938Z,96596.03
2022-09-14T01:58:33.445Z,96593.34
2022-09-14T02:01:05.239Z,96593.22
2022-09-14T02:03:58.028Z,96589.63
2022-09-14T02:06:46.740Z,96590.56
2022-09-14T02:09:20.004Z,96583.56
2022-09-14T02:11:47.567Z,96579.00
2022-09-14T02:14:15.183Z,96574.91
2022-09-14T02:16:46.390Z,96571.19
2022-09-14T02:19:14.718Z,96559.47
2022-09-14T02:21:42.283Z,96558.69
2022-09-14T02:24:11.056Z,96558.84
2022-09-14T02:26:40.156Z,96565.94
2022-09-14T02:29:07.503Z,96563.09
2022-09-14T02:32:12.590Z,96561.84
2022-09-14T02:35:02.138Z,96557.19
2022-09-14T02:37:47.681Z,96558.09
2022-09-14T02:40:41.305Z,96553.72
2022-09-14T02:43:21.349Z,96547.47
2022-09-14T02:46:06.739Z,96543.53
2022-09-14T02:49:04.373Z,96532.09
2022-09-14T02:51:44.841Z,96531.19
2022-09-14T02:54:34.585Z,96531.81
2022-09-14T02:57:05.527Z,96544.69
2022-09-14T02:59:32.736Z,96545.94
2022-09-14T03:02:01.037Z,96550.00
2022-09-14T03:04:29.104Z,96548.94
2022-09-14T03:06:56.881Z,96554.09
2022-09-14T03:09:24.107Z,96554.09
2022-09-14T03:11:51.234Z,96555.97
2022-09-14T03:14:18.541Z,96556.31
2022-09-14T03:16:45.999Z,96542.06
2022-09-14T03:19:13.185Z,96551.41
2022-09-14T03:21:40.738Z,96540.88
2022-09-14T03:24:08.080Z,96551.22
2022-09-14T03:26:38.297Z,96552.00
2022-09-14T03:29:06.816Z,96538.41
2022-09-14T03:31:34.662Z,96545.13
2022-09-14T03:34:03.170Z,96544.19
2022-09-14T03:36:31.592Z,96550.78
2022-09-14T03:39:01.925Z,96545.94
2022-09-14T03:41:29.763Z,96550.97
2022-09-14T03:43:57.047Z,96546.09
2022-09-14T03:46:26.056Z,96539.34
2022-09-14T03:48:55.512Z,96538.72
2022-09-14T03:51:23.419Z,96541.25
2022-09-14T03:53:50.746Z,96541.56
2022-09-14T03:56:21.106Z,96539.97
2022-09-14T03:58:49.730Z,96538.91
2022-09-14T04:01:20.700Z,96535.16
2022-09-14T04:03:49.249Z,96529.38
2022-09-14T04:06:18.163Z,96524.81
2022-09-14T04:08:47.065Z,96520.47
2022-09-14T04:11:24.247Z,96520.16
2022-09-14T04:13:53.041Z,96522.50
2022-09-14T04:16:21.590Z,96526.25
2022-09-14T04:18:48.940Z,96519.84
2022-09-14T04:21:20.017Z,96525.78
2022-09-14T04:26:34.836Z,96514.69
2022-09-14T04:29:02.302Z,96518.06
2022-09-14T04:31:29.720Z,96521.38
2022-09-14T04:33:57.398Z,96521.53
2022-09-14T04:36:29.389Z,96524.19
2022-09-14T04:39:01.665Z,96520.44
2022-09-14T04:41:30.606Z,96522.94
2022-09-14T04:43:58.869Z,96518.69
2022-09-14T04:46:30.371Z,96516.53
2022-09-14T04:48:58.266Z,96516.53
2022-09-14T04:51:29.749Z,96511.81
2022-09-14T04:53:59.594Z,96499.75
2022-09-14T04:56:30.487Z,96489.72
2022-09-14T04:59:00.630Z,96481.09
2022-09-14T05:01:39.841Z,96502.06
2022-09-14T05:04:09.299Z,96501.69
2022-09-14T05:06:39.451Z,96507.56
2022-09-14T05:09:14.821Z,96510.06
2022-09-14T05:11:43.256Z,96508.94
2022-09-14T05:14:13.920Z,96514.50
2022-09-14T05:16:43.110Z,96521.69
2022-09-14T05:19:18.054Z,96519.13
2022-09-14T05:21:46.565Z,96526.44
2022-09-14T05:24:18.617Z,96522.81
2022-09-14T05:26:48.632Z,96531.69
2022-09-14T05:29:18.692Z,96529.50
2022-09-14T05:31:46.796Z,96536.25
2022-09-14T05:34:14.257Z,96533.72
2022-09-14T05:36:42.161Z,96532.69
2022-09-14T05:39:10.479Z,96537.50
2022-09-14T05:41:38.361Z,96541.13
2022-09-14T05:44:06.345Z,96525.25
2022-09-14T05:46:34.804Z,96526.41
2022-09-14T05:49:02.166Z,96518.13
2022-09-14T05:51:29.717Z,96517.41
2022-09-14T05:53:59.112Z,96521.13
2022-09-14T05:56:31.946Z,96530.59
2022-09-14T05:59:00.369Z,96534.19
2022-09-14T06:01:32.820Z,96529.53
2022-09-14T06:04:05.096Z,96523.97
2022-09-14T06:06:33.766Z,96511.75
2022-09-14T06:09:01.550Z,96515.31
2022-09-14T06:11:36.761Z,96522.09
2022-09-14T06:14:04.875Z,96517.56
2022-09-14T06:16:32.071Z,96516.09
2022-09-14T06:19:00.845Z,96512.31
2022-09-14T06:21:34.235Z,96516.41
2022-09-14T06:24:01.628Z,96518.66
2022-09-14T06:26:29.144Z,96512.53
2022-09-14T06:28:56.905Z,96515.44
2022-09-14T06:31:25.454Z,96513.19
2022-09-14T06:33:53.372Z,96518.88
2022-09-14T06:36:24.359Z,96524.66
2022-09-14T06:38:52.457Z,96523.75
2022-09-14T06:41:26.549Z,96533.66
2022-09-14T06:43:57.359Z,96541.56
2022-09-14T06:46:31.599Z,96542.22
2022-09-14T06:49:10.267Z,96539.31
2022-09-14T06:51:42.280Z,96543.75
2022-09-14T06:54:12.345Z,96536.53
2022-09-14T06:56:41.850Z,96541.38
2022-09-14T06:59:15.242Z,96551.84
2022-09-14T07:01:44.830Z,96549.78
2022-09-14T07:04:12.891Z,96548.63
2022-09-14T07:06:44.700Z,96550.72
2022-09-14T07:09:13.472Z,96548.50
2022-09-14T07:11:42.232Z,96557.06
2022-09-14T07:14:10.282Z,96551.88
2022-09-14T07:16:39.915Z,96553.59
2022-09-14T07:19:11.542Z,96559.81
2022-09-14T07:21:39.232Z,96549.25
2022-09-14T07:24:06.836Z,96545.38
2022-09-14T07:26:39.900Z,96544.97
2022-09-14T07:29:14.313Z,96536.03
2022-09-14T07:31:52.108Z,96538.81
2022-09-14T07:34:20.048Z,96534.31
2022-09-14T07:36:47.378Z,96545.25
2022-09-14T07:39:17.254Z,96539.19
2022-09-14T07:41:45.405Z,96549.53
2022-09-14T07:44:16.665Z,96552.16
2022-09-14T07:46:45.931Z,96550.75
2022-09-14T07:49:14.225Z,96545.09
2022-09-14T07:51:41.700Z,96549.53
2022-09-14T07:54:12.529Z,96543.59
2022-09-14T07:56:40.456Z,96549.97
2022-09-14T07:59:31.284Z,96547.31
2022-09-14T08:01:54.943Z,96547.19
2022-09-14T08:04:22.433Z,96554.00
2022-09-14T08:06:49.580Z,96558.81
2022-09-14T08:09:16.743Z,96561.91
2022-09-14T08:11:43.963Z,96561.34
2022-09-14T08:14:14.191Z,96553.91
2022-09-14T08:16:41.734Z,96554.28
2022-09-14T08:19:21.142Z,96555.47
2022-09-14T08:21:48.866Z,96547.63
2022-09-14T08:24:21.573Z,96541.88
2022-09-14T08:26:49.753Z,96546.84
2022-09-14T08:29:19.132Z,96544.03
2022-09-14T08:31:47.490Z,96547.50
2022-09-14T08:34:16.972Z,96552.09
2022-09-14T08:36:46.971Z,96551.13
2022-09-14T08:39:16.321Z,96548.56
2022-09-14T08:41:51.845Z,96555.28
2022-09-14T08:44:40.839Z,96557.25
2022-09-14T08:47:22.012Z,96555.69
2022-09-14T08:49:59.223Z,96557.75
2022-09-14T08:52:37.424Z,96548.78
2022-09-14T08:55:45.931Z,96554.69
2022-09-14T08:58:43.984Z,96556.19
2022-09-14T09:01:18.293Z,96555.19
2022-09-14T09:04:32.440Z,96562.59
2022-09-14T09:07:54.502Z,96561.84
2022-09-14T09:10:22.909Z,96567.38
2022-09-14T09:12:57.364Z,96552.81
2022-09-14T09:16:03.951Z,96553.94
2022-09-14T09:18:49.230Z,96551.84
2022-09-14T09:21:43.545Z,96553.94
2022-09-14T09:24:36.478Z,96560.38
2022-09-14T09:27:15.413Z,96556.03
2022-09-14T09:29:43.323Z,96550.09
2022-09-14T09:32:24.722Z,96561.25
2022-09-14T09:35:23.508Z,96560.13
2022-09-14T09:38:02.727Z,96553.34
2022-09-14T09:40:38.217Z,96551.03
2022-09-14T09:43:10.994Z,96547.94
2022-09-14T09:45:56.710Z,96548.63
2022-09-14T09:48:30.197Z,96553.66
2022-09-14T09:51:26.593Z,96541.50
2022-09-14T09:54:23.612Z,96546.78
2022-09-14T09:57:07.553Z,96544.66
2022-09-14T09:59:41.831Z,96542.06
2022-09-14T10:02:28.791Z,96535.69
2022-09-14T10:05:20.188Z,96533.94
2022-09-14T10:07:50.283Z,96520.78
2022-09-14T10:10:21.720Z,96523.03
2022-09-14T10:12:55.494Z,96525.94
2022-09-14T10:15:31.472Z,96516.78
2022-09-14T10:18:21.693Z,96518.22
2022-09-14T10:20:55.067Z,96525.44
2022-09-14T10:23:27.016Z,96529.72
2022-09-14T10:26:14.083Z,96524.19
2022-09-14T10:28:50.487Z,96515.22
2022-09-14T10:31:20.367Z,96518.25
2022-09-14T10:33:55.692Z,96517.47
2022-09-14T10:36:29.785Z,96510.72
2022-09-14T10:39:26.522Z,96509.50
2022-09-14T10:42:02.314Z,96508.22
2022-09-14T10:45:03.861Z,96502.78
2022-09-14T10:48:13.905Z,96506.22
2022-09-14T10:50:52.951Z,96504.94
2022-09-14T10:53:53.919Z,96500.44
2022-09-14T10:56:39.402Z,96491.19
2022-09-14T10:59:37.036Z,96495.16
2022-09-14T11:02:40.582Z,96499.91
2022-09-14T11:05:52.155Z,96496.53
2022-09-14T11:08:35.529Z,96494.56
2022-09-14T11:11:39.835Z,96498.78
2022-09-14T11:14:47.641Z,96496.97
2022-09-14T11:17:50.773Z,96493.84
2022-09-14T11:20:39.395Z,96505.47
2022-09-14T11:23:37.336Z,96507.69
2022-09-14T11:26:20.521Z,96514.19
2022-09-14T11:29:22.450Z,96505.59
2022-09-14T11:32:21.262Z,96502.41
2022-09-14T11:35:03.515Z,96502.50
2022-09-14T11:37:39.886Z,96501.47
2022-09-14T11:40:40.363Z,96504.22
2022-09-14T11:43:23.781Z,96503.97
2022-09-14T11:46:06.460Z,96497.84
2022-09-14T11:49:05.413Z,96505.63
2022-09-14T11:52:02.149Z,96506.22
2022-09-14T11:54:29.570Z,96507.13
2022-09-14T11:57:03.570Z,96498.94
2022-09-14T11:59:39.778Z,96495.13
2022-09-14T12:02:25.425Z,96488.16
2022-09-14T12:05:07.660Z,96483.38
2022-09-14T12:07:43.713Z,96487.59
2022-09-14T12:10:21.245Z,96483.56
2022-09-14T12:12:56.183Z,96487.50
2022-09-14T12:15:28.868Z,96493.03
2022-09-14T12:18:07.843Z,96489.59
2022-09-14T12:20:40.677Z,96494.72
2022-09-14T12:23:26.807Z,96486.34
2022-09-14T12:26:19.891Z,96488.41
2022-09-14T12:28:51.068Z,96485.66
2022-09-14T12:31:49.150Z,96483.59
2022-09-14T12:34:28.067Z,96479.38
2022-09-14T12:36:57.857Z,96485.56
2022-09-14T12:39:28.760Z,96481.22
2022-09-14T12:41:56.048Z,96476.47
2022-09-14T12:44:42.177Z,96476.72
2022-09-14T12:47:30.150Z,96465.69
2022-09-14T12:50:05.013Z,96455.91
2022-09-14T12:52:45.059Z,96455.81
2022-09-14T12:55:54.667Z,96454.34
2022-09-14T12:58:27.452Z,96453.84
2022-09-14T13:01:29.831Z,96448.22
2022-09-14T13:03:58.472Z,96454.28
2022-09-14T13:06:40.925Z,96443.41
2022-09-14T13:09:36.234Z,96434.94
2022-09-14T13:12:11.704Z,96433.22
2022-09-14T13:15:02.345Z,96430.38
2022-09-14T13:17:32.558Z,96425.72
2022-09-14T13:20:15.862Z,96425.69
2022-09-14T13:22:43.264Z,96413.59
2022-09-14T13:25:37.729Z,96411.13
2022-09-14T13:28:15.639Z,96409.25
2022-09-14T13:30:43.432Z,96396.31
2022-09-14T13:33:18.241Z,96397.41
2022-09-14T13:35:59.301Z,96393.28
2022-09-14T13:38:31.595Z,96388.63
2022-09-14T13:41:13.997Z,96390.00
2022-09-14T13:43:43.788Z,96378.16
2022-09-14T13:46:12.203Z,96373.13
2022-09-14T13:48:41.737Z,96369.72
2022-09-14T13:51:12.904Z,96374.50
2022-09-14T13:53:58.482Z,96367.81
2022-09-14T13:56:35.465Z,96368.31
2022-09-14T13:59:09.015Z,96365.59
2022-09-14T14:01:41.088Z,96364.28
2022-09-14T14:04:35.919Z,96357.38
2022-09-14T14:07:23.167Z,96365.88
2022-09-14T14:09:58.847Z,96363.03
2022-09-14T14:12:50.113Z,96356.19
2022-09-14T14:15:17.901Z,96358.09
2022-09-14T14:17:45.626Z,96356.13
2022-09-14T14:20:31.786Z,96358.09
2022-09-14T14:23:00.495Z,96360.34
2022-09-14T14:25:45.686Z,96353.16
2022-09-14T14:28:27.413Z,96354.78
2022-09-14T14:31:08.524Z,96359.81
2022-09-14T14:33:44.767Z,96364.47
2022-09-14T14:36:13.173Z,96368.56
2022-09-14T14:38:43.043Z,96375.19
2022-09-14T14:41:21.116Z,96377.59
2022-09-14T14:43:50.940Z,96380.81
2022-09-14T14:46:18.450Z,96374.75
2022-09-14T14:48:45.737Z,96373.28
2022-09-14T14:51:16.459Z,96371.34
2022-09-14T14:53:43.914Z,96383.97
2022-09-14T14:56:13.817Z,96385.03
2022-09-14T14:58:46.794Z,96382.25
2022-09-14T15:01:14.229Z,96380.00
2022-09-14T15:03:41.428Z,96387.19
2022-09-14T15:06:23.256Z,96384.56
2022-09-14T15:08:57.581Z,96391.06
2022-09-14T15:11:25.288Z,96397.16
2022-09-14T15:13:52.798Z,96394.16
2022-09-14T15:16:20.357Z,96386.38
2022-09-14T15:18:47.716Z,96381.03
2022-09-14T15:21:15.077Z,96374.31
2022-09-14T15:23:42.365Z,96369.66
2022-09-14T15:26:09.712Z,96368.88
2022-09-14T15:28:38.659Z,96371.22
2022-09-14T15:31:07.951Z,96370.00
2022-09-14T15:33:35.570Z,96364.56
2022-09-14T15:36:03.522Z,96359.97
2022-09-14T15:38:30.901Z,96359.22
2022-09-14T15:40:58.171Z,96358.53
2022-09-14T15:43:25.441Z,96366.00
2022-09-14T15:45:53.138Z,96365.16
2022-09-14T15:48:20.614Z,96361.09
2022-09-14T15:50:48.906Z,96365.38
2022-09-14T15:53:18.425Z,96367.63
2022-09-14T15:55:46.457Z,96351.94
2022-09-14T15:58:14.131Z,96345.38
2022-09-14T16:00:45.308Z,96348.06
2022-09-14T16:03:13.070Z,96347.25
2022-09-14T16:05:40.658Z,96343.84
2022-09-14T16:08:08.198Z,96338.16
2022-09-14T16:10:35.492Z,96340.50
2022-09-14T16:13:02.962Z,96338.97
2022-09-14T16:15:30.235Z,96337.59
2022-09-14T16:17:57.507Z,96338.81
2022-09-14T16:20:25.123Z,96327.41
2022-09-14T16:22:52.790Z,96328.47
2022-09-14T16:25:20.061Z,96322.47
2022-09-14T16:27:48.944Z,96322.47
2022-09-14T16:30:17.034Z,96320.19
2022-09-14T16:32:44.834Z,96323.59
2022-09-14T16:35:12.102Z,96317.94
2022-09-14T16:37:39.474Z,96317.41
2022-09-14T16:40:07.613Z,96313.28
2022-09-14T16:42:35.078Z,96310.63
2022-09-14T16:45:02.414Z,96310.84
2022-09-14T16:47:29.849Z,96301.41
2022-09-14T16:49:57.205Z,96301.97
2022-09-14T16:52:24.711Z,96294.63
2022-09-14T16:54:56.060Z,96297.59
2022-09-14T16:57:25.553Z,96292.84
2022-09-14T16:59:53.163Z,96292.63
2022-09-14T17:02:20.603Z,96293.72
2022-09-14T17:04:47.952Z,96300.84
2022-09-14T17:07:15.173Z,96292.06
2022-09-14T17:09:42.406Z,96293.94
2022-09-14T17:12:09.857Z,96292.28
2022-09-14T17:14:37.226Z,96301.75
2022-09-14T17:17:04.781Z,96307.41
2022-09-14T17:19:34.137Z,96304.28
2022-09-14T17:22:03.915Z,96301.63
2022-09-14T17:24:31.541Z,96295.63
2022-09-14T17:26:58.745Z,96292.59
2022-09-14T17:29:26.204Z,96301.84
2022-09-14T17:31:55.580Z,96296.41
2022-09-14T17:34:23.029Z,96302.06
2022-09-14T17:36:50.327Z,96308.28
2022-09-14T17:39:17.714Z,96308.84
2022-09-14T17:41:45.277Z,96311.06
2022-09-14T17:44:14.793Z,96304.63
2022-09-14T17:46:53.041Z,96305.41
2022-09-14T17:49:23.038Z,96302.94
2022-09-14T17:51:51.378Z,96293.84
2022-09-14T17:54:20.107Z,96290.63
2022-09-14T17:56:47.662Z,96279.75
2022-09-14T17:59:20.498Z,96278.63
2022-09-14T18:01:49.516Z,96274.94
2022-09-14T18:04:17.317Z,96280.06
2022-09-14T18:06:47.937Z,96270.72
2022-09-14T18:09:24.399Z,96271.84
2022-09-14T18:11:54.728Z,96261.28
2022-09-14T18:14:22.116Z,96256.72
2022-09-14T18:16:49.457Z,96256.72
2022-09-14T18:19:17.065Z,96253.72
2022-09-14T18:21:48.947Z,96255.41
2022-09-14T18:24:19.371Z,96251.41
2022-09-14T18:26:46.686Z,96247.06
2022-09-14T18:29:17.347Z,96240.03
2022-09-14T18:31:45.247Z,96245.34
2022-09-14T18:34:13.128Z,96245.00
2022-09-14T18:36:40.373Z,96246.84
2022-09-14T18:39:07.699Z,96249.16
2022-09-14T18:41:35.258Z,96255.28
2022-09-14T18:44:03.254Z,96254.03
2022-09-14T18:46:31.493Z,96251.59
2022-09-14T18:49:01.561Z,96236.91
2022-09-14T18:51:32.061Z,96233.47
2022-09-14T18:54:05.575Z,96237.59
2022-09-14T18:56:34.713Z,96243.34
2022-09-14T18:59:04.184Z,96241.16
2022-09-14T19:01:32.799Z,96244.56
2022-09-14T19:04:02.449Z,96238.81
2022-09-14T19:06:30.107Z,96233.34
2022-09-14T19:08:58.485Z,96226.34
2022-09-14T19:11:28.999Z,96235.13
2022-09-14T19:13:58.314Z,96237.31
2022-09-14T19:16:26.060Z,96241.00
2022-09-14T19:18:53.929Z,96223.47
2022-09-14T19:21:28.537Z,96218.25
2022-09-14T19:24:04.280Z,96222.16
2022-09-14T19:26:36.032Z,96216.81
2022-09-14T19:29:04.280Z,96212.72
2022-09-14T19:31:33.647Z,96218.94
2022-09-14T19:34:03.205Z,96222.41
2022-09-14T19:36:31.606Z,96214.41
2022-09-14T19:39:02.007Z,96210.97
2022-09-14T19:41:31.667Z,96216.38
2022-09-14T19:44:00.250Z,96219.91
2022-09-14T19:46:28.685Z,96225.78
2022-09-14T19:48:56.218Z,96234.63
2022-09-14T19:51:27.018Z,96231.81
2022-09-14T19:53:56.946Z,96223.41
2022-09-14T19:56:27.810Z,96208.06
2022-09-14T19:58:59.951Z,96199.66
2022-09-14T20:01:29.984Z,96218.47
2022-09-14T20:03:57.603Z,96222.09
2022-09-14T20:06:31.762Z,96229.88
2022-09-14T20:09:08.036Z,96236.91
2022-09-14T20:11:38.012Z,96240.22
2022-09-14T20:14:07.809Z,96238.47
2022-09-14T20:16:40.041Z,96249.91
2022-09-14T20:19:29.671Z,96252.81
2022-09-14T20:21:57.362Z,96265.25
2022-09-14T20:24:28.345Z,96260.75
2022-09-14T20:26:59.705Z,96255.69
2022-09-14T20:29:30.854Z,96252.03
2022-09-14T20:31:59.632Z,96261.72
2022-09-14T20:34:27.279Z,96254.94
2022-09-14T20:36:55.589Z,96239.09
2022-09-14T20:39:24.114Z,96233.44
2022-09-14T20:41:51.569Z,96230.44
2022-09-14T20:44:22.359Z,96240.41
2022-09-14T20:46:51.014Z,96238.97
2022-09-14T20:49:22.166Z,96235.09
2022-09-14T20:51:49.866Z,96225.97
2022-09-14T20:54:18.435Z,96219.09
2022-09-14T20:56:46.466Z,96216.22
2022-09-14T20:59:17.137Z,96211.91
2022-09-14T21:01:47.581Z,96205.91
2022-09-14T21:04:20.062Z,96198.72
2022-09-14T21:06:52.612Z,96195.91
2022-09-14T21:09:22.756Z,96187.38
2022-09-14T21:11:50.747Z,96184.84
2022-09-14T21:14:20.009Z,96185.03
2022-09-14T21:16:51.890Z,96188.94
2022-09-14T21:19:21.105Z,96183.25
2022-09-14T21:21:50.186Z,96176.19
2022-09-14T21:24:20.084Z,96187.19
2022-09-14T21:26:48.003Z,96174.97
2022-09-14T21:29:20.945Z,96161.84
2022-09-14T21:31:48.922Z,96150.97
2022-09-14T21:34:17.022Z,96145.94
2022-09-14T21:36:48.452Z,96129.94
2022-09-14T21:39:23.335Z,96131.19
2022-09-14T21:41:58.800Z,96123.72
2022-09-14T21:44:31.778Z,96125.19
2022-09-14T21:46:59.554Z,96133.28
2022-09-14T21:49:26.789Z,96129.50
2022-09-14T21:51:54.530Z,96118.06
2022-09-14T21:54:22.331Z,96120.41
2022-09-14T21:56:49.586Z,96123.31
2022-09-14T21:59:20.560Z,96133.50
2022-09-14T22:01:48.746Z,96138.50
2022-09-14T22:04:19.692Z,96134.72
2022-09-14T22:06:48.034Z,96139.28
2022-09-14T22:09:17.709Z,96147.72
2022-09-14T22:11:45.361Z,96139.81
2022-09-14T22:14:18.198Z,96129.53
2022-09-14T22:16:46.806Z,96114.88
2022-09-14T22:19:26.939Z,96097.97
2022-09-14T22:21:54.511Z,96099.31
2022-09-14T22:24:37.098Z,96096.84
2022-09-14T22:27:08.277Z,96105.19
2022-09-14T22:29:35.648Z,96103.00
2022-09-14T22:32:04.395Z,96107.31
2022-09-14T22:34:32.469Z,96101.72
2022-09-14T22:37:00.425Z,96103.41
2022-09-14T22:39:27.639Z,96098.25
2022-09-14T22:41:54.865Z,96094.84
2022-09-14T22:44:22.160Z,96095.25
2022-09-14T22:46:49.671Z,96092.94
2022-09-14T22:49:16.884Z,96092.50
2022-09-14T22:51:44.233Z,96090.97
2022-09-14T22:54:11.466Z,96095.06
2022-09-14T22:56:39.878Z,96096.41
2022-09-14T22:59:09.962Z,96090.97
2022-09-14T23:01:40.828Z,96088.63
2022-09-14T23:04:12.517Z,96087.88
2022-09-14T23:06:49.250Z,96094.44
2022-09-14T23:09:22.326Z,96095.56
2022-09-14T23:11:49.655Z,96088.53
2022-09-14T23:14:17.528Z,96088.63
2022-09-14T23:16:45.689Z,96093.88
2022-09-14T23:19:17.148Z,96098.88
2022-09-14T23:21:45.283Z,96093.22
2022-09-14T23:24:13.352Z,96095.41
2022-09-14T23:26:41.264Z,96091.22
2022-09-14T23:29:14.779Z,96089.34
2022-09-14T23:31:42.071Z,96082.53
2022-09-14T23:34:09.431Z,96081.19
2022-09-14T23:36:36.754Z,96074.75
2022-09-14T23:39:04.322Z,96080.31
2022-09-14T23:41:31.992Z,96080.41
2022-09-14T23:43:59.287Z,96076.00
2022-09-14T23:46:26.743Z,96073.75
2022-09-14T23:48:54.108Z,96073.44
2022-09-14T23:51:21.722Z,96063.13
2022-09-14T23:53:49.561Z,96056.69
2022-09-14T23:56:17.071Z,96056.66
2022-09-14T23:58:44.573Z,96049.69
